createdAt,value
2023-02-11T00:01:41.903Z,26.07
2023-02-11T00:04:11.103Z,26.57
2023-02-11T00:06:39.000Z,27.37
2023-02-11T00:09:09.052Z,25.20
2023-02-11T00:11:37.555Z,24.83
2023-02-11T00:14:07.771Z,27.30
2023-02-11T00:16:36.215Z,27.27
2023-02-11T00:19:07.144Z,25.40
2023-02-11T00:21:36.553Z,26.93
2023-02-11T00:24:06.309Z,26.37
2023-02-11T00:26:38.115Z,25.27
2023-02-11T00:29:07.992Z,25.13
2023-02-11T00:31:36.671Z,25.90
2023-02-11T00:34:06.932Z,26.03
2023-02-11T00:36:36.385Z,26.77
2023-02-11T00:39:07.731Z,25.00
2023-02-11T00:41:38.597Z,24.70
2023-02-11T00:44:09.282Z,23.83
2023-02-11T00:46:37.816Z,26.00
2023-02-11T00:49:06.928Z,25.83
2023-02-11T00:51:36.833Z,25.90
2023-02-11T00:54:06.460Z,24.03
2023-02-11T00:56:36.038Z,25.27
2023-02-11T00:59:05.500Z,26.33
2023-02-11T01:01:34.782Z,26.83
2023-02-11T01:04:03.371Z,25.40
2023-02-11T01:06:33.021Z,25.47
2023-02-11T01:09:00.983Z,24.87
2023-02-11T01:11:29.167Z,25.13
2023-02-11T01:13:57.144Z,24.67
2023-02-11T01:16:26.783Z,24.70
2023-02-11T01:18:58.858Z,25.33
2023-02-11T01:21:27.335Z,24.90
2023-02-11T01:23:56.007Z,25.30
2023-02-11T01:26:24.787Z,23.37
2023-02-11T01:28:54.198Z,24.80
2023-02-11T01:31:24.051Z,25.60
2023-02-11T01:33:55.297Z,25.03
2023-02-11T01:36:23.327Z,25.17
2023-02-11T01:38:51.550Z,24.70
2023-02-11T01:41:21.581Z,23.87
2023-02-11T01:43:51.415Z,24.90
2023-02-11T01:46:26.293Z,25.80
2023-02-11T01:49:02.340Z,23.77
2023-02-11T01:51:35.281Z,28.13
2023-02-11T01:54:24.586Z,24.60
2023-02-11T01:57:12.495Z,32.77
2023-02-11T01:59:45.469Z,24.97
2023-02-11T02:02:15.151Z,30.30
2023-02-11T02:08:42.378Z,32.37
2023-02-11T02:11:10.867Z,27.93
2023-02-11T02:13:39.125Z,26.93
2023-02-11T02:16:10.154Z,25.37
2023-02-11T02:18:48.801Z,26.37
2023-02-11T02:21:46.451Z,34.73
2023-02-11T02:24:40.696Z,25.00
2023-02-11T02:27:20.635Z,25.87
2023-02-11T02:30:04.401Z,26.90
2023-02-11T02:32:53.467Z,28.27
2023-02-11T02:35:30.501Z,26.30
2023-02-11T02:38:03.216Z,24.63
2023-02-11T02:40:33.976Z,25.93
2023-02-11T02:43:02.609Z,31.80
2023-02-11T02:45:31.152Z,25.17
2023-02-11T02:48:02.652Z,26.13
2023-02-11T02:50:34.441Z,27.37
2023-02-11T02:53:13.223Z,26.03
2023-02-11T02:56:00.672Z,26.80
2023-02-11T02:58:54.588Z,31.77
2023-02-11T03:01:29.889Z,29.60
2023-02-11T03:04:05.016Z,29.70
2023-02-11T03:06:37.866Z,25.83
2023-02-11T03:09:11.403Z,27.40
2023-02-11T03:11:40.047Z,26.27
2023-02-11T03:14:10.994Z,32.03
2023-02-11T03:16:39.837Z,28.63
2023-02-11T03:19:12.086Z,28.07
2023-02-11T03:21:41.336Z,27.73
2023-02-11T03:24:12.833Z,27.67
2023-02-11T03:26:44.340Z,26.40
2023-02-11T03:29:18.465Z,26.37
2023-02-11T03:31:52.907Z,26.87
2023-02-11T03:34:27.355Z,28.13
2023-02-11T03:36:57.140Z,27.73
2023-02-11T03:39:27.810Z,28.03
2023-02-11T03:41:58.604Z,27.17
2023-02-11T03:44:29.778Z,28.27
2023-02-11T03:46:57.813Z,31.53
2023-02-11T03:49:28.258Z,28.03
2023-02-11T03:51:57.147Z,31.47
2023-02-11T03:54:28.817Z,28.40
2023-02-11T03:56:59.873Z,27.93
2023-02-11T03:59:29.576Z,28.07
2023-02-11T04:01:59.563Z,27.43
2023-02-11T04:04:31.025Z,28.10
2023-02-11T04:06:59.305Z,28.70
2023-02-11T04:09:27.460Z,28.17
2023-02-11T04:11:55.781Z,27.80
2023-02-11T04:14:24.592Z,29.17
2023-02-11T04:16:57.394Z,28.93
2023-02-11T04:19:25.696Z,28.73
2023-02-11T04:21:55.243Z,28.50
2023-02-11T04:24:23.500Z,30.93
2023-02-11T04:26:51.554Z,28.43
2023-02-11T04:29:19.679Z,29.53
2023-02-11T04:31:48.854Z,30.17
2023-02-11T04:34:17.159Z,29.37
2023-02-11T04:36:45.276Z,30.60
2023-02-11T04:39:14.996Z,31.20
2023-02-11T04:41:44.859Z,29.87
2023-02-11T04:44:13.840Z,31.97
2023-02-11T04:46:41.953Z,30.10
2023-02-11T04:49:11.972Z,30.47
2023-02-11T04:51:39.974Z,30.63
2023-02-11T04:54:07.996Z,30.40
2023-02-11T04:56:37.476Z,32.70
2023-02-11T04:59:06.876Z,32.53
2023-02-11T05:01:35.384Z,31.77
2023-02-11T05:04:04.394Z,33.60
2023-02-11T05:06:35.273Z,32.03
2023-02-11T05:09:06.161Z,32.53
2023-02-11T05:11:34.523Z,31.37
2023-02-11T05:14:05.293Z,33.77
2023-02-11T05:16:33.388Z,32.67
2023-02-11T05:19:02.267Z,33.20
2023-02-11T05:21:30.762Z,33.80
2023-02-11T05:23:59.779Z,33.53
2023-02-11T05:26:27.764Z,31.77
2023-02-11T05:28:56.236Z,33.43
2023-02-11T05:31:25.552Z,34.93
2023-02-11T05:33:53.722Z,31.93
2023-02-11T05:36:21.695Z,33.90
2023-02-11T05:38:51.044Z,33.07
2023-02-11T05:41:19.458Z,32.43
2023-02-11T05:43:49.911Z,33.93
2023-02-11T05:46:19.847Z,33.13
2023-02-11T05:48:49.159Z,35.37
2023-02-11T05:51:17.607Z,33.47
2023-02-11T05:53:46.979Z,34.70
2023-02-11T05:56:14.987Z,36.77
2023-02-11T05:58:43.015Z,34.77
2023-02-11T06:01:12.660Z,36.80
2023-02-11T06:03:43.164Z,36.37
2023-02-11T06:06:13.815Z,36.30
2023-02-11T06:08:42.130Z,36.07
2023-02-11T06:11:10.401Z,37.60
2023-02-11T06:13:38.396Z,37.37
2023-02-11T06:16:06.875Z,37.43
2023-02-11T06:18:34.944Z,36.33
2023-02-11T06:21:03.836Z,35.67
2023-02-11T06:23:33.570Z,38.90
2023-02-11T06:26:04.892Z,37.97
2023-02-11T06:28:33.831Z,36.97
2023-02-11T06:31:07.600Z,36.83
2023-02-11T06:33:36.530Z,36.50
2023-02-11T06:36:06.327Z,39.00
2023-02-11T06:38:37.482Z,35.80
2023-02-11T06:41:05.907Z,39.57
2023-02-11T06:43:34.196Z,39.10
2023-02-11T06:46:03.041Z,39.47
2023-02-11T06:48:32.476Z,38.47
2023-02-11T06:51:03.968Z,39.50
2023-02-11T06:53:32.568Z,40.47
2023-02-11T06:56:06.798Z,39.20
2023-02-11T06:58:35.104Z,39.90
2023-02-11T07:01:06.174Z,41.37
2023-02-11T07:03:35.295Z,39.13
2023-02-11T07:06:03.567Z,39.87
2023-02-11T07:08:32.358Z,39.57
2023-02-11T07:11:00.996Z,40.30
2023-02-11T07:13:30.758Z,41.23
2023-02-11T07:15:58.881Z,38.40
2023-02-11T07:18:27.260Z,40.40
2023-02-11T07:20:56.927Z,40.17
2023-02-11T07:23:24.942Z,41.20
2023-02-11T07:25:54.166Z,41.07
2023-02-11T07:28:23.612Z,38.57
2023-02-11T07:30:55.486Z,40.57
2023-02-11T07:33:23.724Z,38.63
2023-02-11T07:35:53.058Z,39.47
2023-02-11T07:38:23.021Z,37.83
2023-02-11T07:40:51.439Z,37.13
2023-02-11T07:43:19.622Z,41.00
2023-02-11T07:45:47.864Z,38.63
2023-02-11T07:48:17.264Z,41.27
2023-02-11T07:50:45.285Z,39.37
2023-02-11T07:53:13.853Z,39.57
2023-02-11T07:55:42.167Z,39.63
2023-02-11T07:58:10.533Z,38.20
2023-02-11T08:00:39.079Z,38.63
2023-02-11T08:03:08.313Z,38.00
2023-02-11T08:05:40.230Z,36.97
2023-02-11T08:08:09.039Z,38.30
2023-02-11T08:10:38.111Z,39.03
2023-02-11T08:13:07.201Z,38.77
2023-02-11T08:15:37.821Z,38.30
2023-02-11T08:18:06.602Z,38.77
2023-02-11T08:20:34.918Z,37.90
2023-02-11T08:23:04.261Z,37.30
2023-02-11T08:25:32.615Z,37.07
2023-02-11T08:28:01.075Z,35.83
2023-02-11T08:30:31.771Z,36.53
2023-02-11T08:33:00.140Z,40.20
2023-02-11T08:35:28.900Z,38.77
2023-02-11T08:37:57.805Z,38.93
2023-02-11T08:40:27.410Z,39.50
2023-02-11T08:42:58.272Z,37.80
2023-02-11T08:45:27.972Z,36.23
2023-02-11T08:47:56.098Z,39.63
2023-02-11T08:50:24.404Z,35.00
2023-02-11T08:52:53.924Z,39.23
2023-02-11T08:55:22.146Z,38.20
2023-02-11T08:57:51.877Z,35.00
2023-02-11T09:00:20.856Z,39.57
2023-02-11T09:02:49.965Z,38.53
2023-02-11T09:05:19.136Z,37.90
2023-02-11T09:07:47.254Z,36.67
2023-02-11T09:10:15.892Z,38.13
2023-02-11T09:12:44.213Z,37.80
2023-02-11T09:15:13.884Z,43.87
2023-02-11T09:17:43.078Z,36.23
2023-02-11T09:20:11.949Z,41.37
2023-02-11T09:22:40.079Z,36.40
2023-02-11T09:25:08.729Z,36.37
2023-02-11T09:27:36.718Z,37.37
2023-02-11T09:30:07.601Z,35.40
2023-02-11T09:32:37.744Z,36.93
2023-02-11T09:35:07.130Z,32.83
2023-02-11T09:37:37.366Z,35.13
2023-02-11T09:40:07.097Z,35.00
2023-02-11T09:42:45.271Z,35.13
2023-02-11T09:45:19.945Z,35.83
2023-02-11T09:47:57.619Z,33.50
2023-02-11T09:50:29.731Z,33.77
2023-02-11T09:53:01.375Z,35.30
2023-02-11T09:55:31.917Z,36.80
2023-02-11T09:57:59.938Z,36.83
2023-02-11T10:00:33.748Z,35.00
2023-02-11T10:03:36.966Z,35.63
2023-02-11T10:06:20.024Z,34.03
2023-02-11T10:08:58.484Z,33.43
2023-02-11T10:11:41.402Z,35.23
2023-02-11T10:14:20.108Z,34.07
2023-02-11T10:16:57.096Z,36.10
2023-02-11T10:19:35.985Z,37.10
2023-02-11T10:22:12.050Z,42.87
2023-02-11T10:24:43.408Z,34.93
2023-02-11T10:27:19.584Z,34.47
2023-02-11T10:29:52.329Z,33.77
2023-02-11T10:32:31.360Z,36.27
2023-02-11T10:35:17.963Z,34.60
2023-02-11T10:37:48.934Z,38.23
2023-02-11T10:40:18.893Z,36.03
2023-02-11T10:42:50.213Z,35.37
2023-02-11T10:45:33.871Z,34.30
2023-02-11T10:48:02.263Z,34.43
2023-02-11T10:50:33.349Z,35.23
2023-02-11T10:53:17.245Z,36.63
2023-02-11T10:55:52.183Z,35.10
2023-02-11T10:58:26.810Z,35.27
2023-02-11T11:00:56.982Z,36.20
2023-02-11T11:03:26.866Z,34.43
2023-02-11T11:05:59.785Z,33.37
2023-02-11T11:08:43.025Z,33.30
2023-02-11T11:11:13.161Z,34.67
2023-02-11T11:13:43.617Z,33.23
2023-02-11T11:16:24.524Z,33.70
2023-02-11T11:18:54.032Z,33.33
2023-02-11T11:21:25.724Z,34.90
2023-02-11T11:23:58.031Z,34.17
2023-02-11T11:26:27.157Z,31.47
2023-02-11T11:28:58.920Z,33.07
2023-02-11T11:31:30.877Z,33.13
2023-02-11T11:34:00.907Z,30.83
2023-02-11T11:36:40.588Z,31.40
2023-02-11T11:39:20.863Z,28.43
2023-02-11T11:41:55.122Z,31.00
2023-02-11T11:44:27.046Z,31.57
2023-02-11T11:47:18.585Z,29.77
2023-02-11T11:49:50.876Z,30.80
2023-02-11T11:52:26.730Z,30.57
2023-02-11T11:55:03.672Z,29.73
2023-02-11T11:57:33.014Z,29.10
2023-02-11T12:00:01.267Z,27.97
2023-02-11T12:02:57.473Z,28.97
2023-02-11T12:05:31.519Z,26.77
2023-02-11T12:08:07.857Z,24.47
2023-02-11T12:10:45.707Z,28.73
2023-02-11T12:13:30.788Z,27.37
2023-02-11T12:16:07.044Z,27.17
2023-02-11T12:19:18.724Z,25.50
2023-02-11T12:21:55.074Z,24.17
2023-02-11T12:24:34.040Z,25.37
2023-02-11T12:27:08.191Z,24.30
2023-02-11T12:29:43.571Z,24.03
2023-02-11T12:32:21.848Z,24.97
2023-02-11T12:35:10.053Z,22.30
2023-02-11T12:37:51.394Z,21.30
2023-02-11T12:40:24.376Z,21.67
2023-02-11T12:43:18.548Z,22.63
2023-02-11T12:46:32.274Z,23.03
2023-02-11T12:49:15.858Z,20.30
2023-02-11T12:51:53.245Z,20.60
2023-02-11T12:54:29.100Z,21.60
2023-02-11T12:57:02.438Z,20.80
2023-02-11T12:59:44.754Z,21.20
2023-02-11T13:02:18.989Z,19.90
2023-02-11T13:04:51.660Z,19.77
2023-02-11T13:07:24.183Z,22.00
2023-02-11T13:09:56.283Z,22.67
2023-02-11T13:12:43.147Z,22.30
2023-02-11T13:15:19.575Z,23.67
2023-02-11T13:17:56.913Z,23.67
2023-02-11T13:20:37.548Z,23.07
2023-02-11T13:23:12.382Z,24.73
2023-02-11T13:25:44.745Z,23.10
2023-02-11T13:28:22.381Z,23.10
2023-02-11T13:31:02.217Z,22.53
2023-02-11T13:33:35.695Z,23.77
2023-02-11T13:36:18.534Z,22.13
2023-02-11T13:39:04.350Z,22.27
2023-02-11T13:41:36.693Z,22.47
2023-02-11T13:44:22.124Z,21.37
2023-02-11T13:46:58.308Z,21.83
2023-02-11T13:49:31.305Z,22.67
2023-02-11T13:52:00.264Z,21.93
2023-02-11T13:54:33.281Z,21.63
2023-02-11T13:57:40.329Z,21.07
2023-02-11T14:00:44.469Z,20.10
2023-02-11T14:03:47.034Z,19.17
2023-02-11T14:06:51.822Z,18.70
2023-02-11T14:09:40.826Z,20.20
2023-02-11T14:12:33.592Z,20.63
2023-02-11T14:15:19.146Z,18.87
2023-02-11T14:17:47.327Z,19.70
2023-02-11T14:20:49.076Z,21.50
2023-02-11T14:23:27.297Z,18.13
2023-02-11T14:26:13.710Z,19.93
2023-02-11T14:28:46.790Z,20.27
2023-02-11T14:31:16.124Z,19.77
2023-02-11T14:34:09.447Z,18.50
2023-02-11T14:36:56.690Z,19.20
2023-02-11T14:39:33.870Z,20.07
2023-02-11T14:42:03.040Z,20.40
2023-02-11T14:44:32.683Z,20.77
2023-02-11T14:47:01.063Z,20.27
2023-02-11T14:49:32.390Z,20.30
2023-02-11T14:52:17.020Z,21.77
2023-02-11T14:54:45.895Z,20.17
2023-02-11T14:57:17.618Z,21.03
2023-02-11T15:00:01.322Z,18.60
2023-02-11T15:02:32.105Z,18.20
2023-02-11T15:05:21.647Z,17.47
2023-02-11T15:07:53.306Z,16.33
2023-02-11T15:10:26.652Z,15.93
2023-02-11T15:12:55.813Z,14.90
2023-02-11T15:15:23.993Z,15.20
2023-02-11T15:17:53.163Z,13.67
2023-02-11T15:20:24.164Z,14.57
2023-02-11T15:22:57.131Z,14.77
2023-02-11T15:25:28.856Z,15.03
2023-02-11T15:28:00.452Z,12.80
2023-02-11T15:30:34.153Z,13.83
2023-02-11T15:33:07.025Z,13.40
2023-02-11T15:35:36.937Z,12.87
2023-02-11T15:38:09.187Z,12.43
2023-02-11T15:40:38.872Z,13.13
2023-02-11T15:43:09.042Z,13.50
2023-02-11T15:45:40.253Z,13.27
2023-02-11T15:48:10.857Z,13.13
2023-02-11T15:50:40.745Z,13.53
2023-02-11T15:53:22.916Z,12.00
2023-02-11T15:55:52.165Z,12.80
2023-02-11T15:58:20.692Z,13.30
2023-02-11T16:00:59.114Z,13.17
2023-02-11T16:03:32.641Z,13.37
2023-02-11T16:06:19.700Z,12.97
2023-02-11T16:09:00.834Z,13.70
2023-02-11T16:11:31.484Z,13.70
2023-02-11T16:14:00.994Z,14.83
2023-02-11T16:16:33.874Z,14.27
2023-02-11T16:19:06.192Z,14.37
2023-02-11T16:21:39.287Z,13.70
2023-02-11T16:24:20.255Z,13.60
2023-02-11T16:26:50.668Z,14.00
2023-02-11T16:29:21.970Z,12.87
2023-02-11T16:31:54.379Z,13.93
2023-02-11T16:34:25.353Z,13.93
2023-02-11T16:36:54.152Z,13.70
2023-02-11T16:39:24.314Z,13.27
2023-02-11T16:41:55.473Z,13.73
2023-02-11T16:44:23.962Z,13.70
2023-02-11T16:46:53.775Z,12.40
2023-02-11T16:49:24.445Z,12.67
2023-02-11T16:51:54.701Z,11.87
2023-02-11T16:54:24.934Z,11.20
2023-02-11T16:56:56.645Z,11.13
2023-02-11T16:59:26.789Z,10.60
2023-02-11T17:01:55.683Z,9.47
2023-02-11T17:04:26.745Z,10.30
2023-02-11T17:06:58.367Z,10.07
2023-02-11T17:09:31.034Z,10.10
2023-02-11T17:12:00.180Z,9.73
2023-02-11T17:14:28.733Z,11.53
2023-02-11T17:16:58.301Z,11.50
2023-02-11T17:19:26.251Z,9.93
2023-02-11T17:21:54.642Z,11.07
2023-02-11T17:24:24.357Z,11.50
2023-02-11T17:26:54.723Z,11.83
2023-02-11T17:29:25.625Z,10.27
2023-02-11T17:31:55.176Z,10.90
2023-02-11T17:34:23.916Z,10.20
2023-02-11T17:36:52.629Z,9.93
2023-02-11T17:39:21.097Z,10.63
2023-02-11T17:41:49.920Z,10.37
2023-02-11T17:44:19.394Z,10.50
2023-02-11T17:46:47.886Z,9.60
2023-02-11T17:49:16.513Z,9.27
2023-02-11T17:51:45.665Z,8.20
2023-02-11T17:54:15.554Z,8.77
2023-02-11T17:56:44.069Z,9.90
2023-02-11T17:59:13.991Z,7.97
2023-02-11T18:01:45.307Z,9.20
2023-02-11T18:04:15.670Z,8.77
2023-02-11T18:06:44.304Z,9.73
2023-02-11T18:09:12.956Z,8.93
2023-02-11T18:11:42.532Z,9.80
2023-02-11T18:14:11.615Z,9.40
2023-02-11T18:16:43.625Z,9.10
2023-02-11T18:19:15.176Z,8.30
2023-02-11T18:21:43.398Z,9.73
2023-02-11T18:24:12.696Z,9.67
2023-02-11T18:26:41.921Z,8.63
2023-02-11T18:29:11.929Z,9.40
2023-02-11T18:31:41.221Z,8.57
2023-02-11T18:34:11.539Z,8.50
2023-02-11T18:36:42.543Z,8.33
2023-02-11T18:39:10.497Z,8.23
2023-02-11T18:41:42.252Z,7.80
2023-02-11T18:44:10.327Z,8.87
2023-02-11T18:46:38.630Z,10.00
2023-02-11T18:49:07.143Z,8.60
2023-02-11T18:51:35.871Z,8.53
2023-02-11T18:54:07.132Z,8.10
2023-02-11T18:56:35.142Z,8.23
2023-02-11T18:59:05.651Z,7.53
2023-02-11T19:01:35.621Z,7.87
2023-02-11T19:04:10.299Z,9.27
2023-02-11T19:06:39.701Z,8.73
2023-02-11T19:09:12.740Z,9.30
2023-02-11T19:11:49.677Z,7.70
2023-02-11T19:14:21.789Z,8.90
2023-02-11T19:16:53.742Z,8.87
2023-02-11T19:19:25.238Z,8.70
2023-02-11T19:21:53.687Z,8.90
2023-02-11T19:24:24.119Z,8.10
2023-02-11T19:26:53.507Z,8.83
2023-02-11T19:29:21.722Z,8.73
2023-02-11T19:31:50.171Z,9.10
2023-02-11T19:34:19.879Z,11.73
2023-02-11T19:36:48.565Z,8.53
2023-02-11T19:39:19.466Z,8.50
2023-02-11T19:41:49.161Z,9.23
2023-02-11T19:44:18.545Z,9.00
2023-02-11T19:46:48.324Z,9.03
2023-02-11T19:49:22.804Z,10.50
2023-02-11T19:51:50.770Z,10.17
2023-02-11T19:54:19.781Z,9.43
2023-02-11T19:56:54.630Z,8.90
2023-02-11T19:59:22.581Z,8.87
2023-02-11T20:01:53.027Z,9.37
2023-02-11T20:04:21.726Z,9.00
2023-02-11T20:06:50.262Z,9.67
2023-02-11T20:09:18.712Z,9.07
2023-02-11T20:11:47.577Z,9.07
2023-02-11T20:14:19.164Z,8.90
2023-02-11T20:16:49.993Z,10.00
2023-02-11T20:19:20.427Z,8.87
2023-02-11T20:21:53.759Z,9.13
2023-02-11T20:24:22.745Z,9.27
2023-02-11T20:26:57.818Z,9.53
2023-02-11T20:29:31.174Z,9.00
2023-02-11T20:31:59.649Z,8.53
2023-02-11T20:34:28.024Z,9.20
2023-02-11T20:36:56.719Z,9.47
2023-02-11T20:39:28.983Z,8.40
2023-02-11T20:42:00.017Z,8.40
2023-02-11T20:44:29.710Z,8.83
2023-02-11T20:46:59.901Z,8.47
2023-02-11T20:49:29.410Z,8.50
2023-02-11T20:51:58.705Z,8.53
2023-02-11T20:54:26.871Z,8.63
2023-02-11T20:56:59.310Z,8.13
2023-02-11T20:59:29.611Z,8.60
2023-02-11T21:01:59.874Z,8.43
2023-02-11T21:04:32.801Z,8.73
2023-02-11T21:07:02.747Z,8.27
2023-02-11T21:09:32.533Z,8.33
2023-02-11T21:12:00.760Z,7.90
2023-02-11T21:14:32.122Z,7.93
2023-02-11T21:17:00.175Z,8.13
2023-02-11T21:19:28.510Z,8.77
2023-02-11T21:22:00.522Z,7.73
2023-02-11T21:24:31.699Z,8.33
2023-02-11T21:27:00.156Z,6.77
2023-02-11T21:29:28.079Z,7.83
2023-02-11T21:31:58.922Z,6.83
2023-02-11T21:34:27.020Z,7.80
2023-02-11T21:36:55.390Z,6.90
2023-02-11T21:39:23.854Z,6.70
2023-02-11T21:41:53.165Z,7.13
2023-02-11T21:44:21.550Z,6.90
2023-02-11T21:46:50.101Z,6.67
2023-02-11T21:49:21.750Z,6.27
2023-02-11T21:51:50.528Z,7.37
2023-02-11T21:54:18.963Z,7.77
2023-02-11T21:56:47.289Z,8.37
2023-02-11T21:59:16.467Z,7.63
2023-02-11T22:01:47.013Z,7.47
2023-02-11T22:04:17.705Z,7.37
2023-02-11T22:06:47.641Z,7.60
2023-02-11T22:09:16.234Z,8.13
2023-02-11T22:11:44.312Z,6.93
2023-02-11T22:14:12.641Z,7.30
2023-02-11T22:16:40.932Z,7.23
2023-02-11T22:19:09.393Z,7.00
2023-02-11T22:21:37.791Z,7.17
2023-02-11T22:24:08.139Z,6.50
2023-02-11T22:26:39.703Z,7.70
2023-02-11T22:29:08.792Z,7.37
2023-02-11T22:31:38.753Z,10.10
2023-02-11T22:34:07.530Z,7.50
2023-02-11T22:36:39.068Z,6.97
2023-02-11T22:39:12.635Z,7.50
2023-02-11T22:41:42.392Z,7.80
2023-02-11T22:44:10.913Z,7.57
2023-02-11T22:46:39.487Z,7.47
2023-02-11T22:49:08.044Z,7.87
2023-02-11T22:51:36.702Z,8.37
2023-02-11T22:54:07.204Z,7.13
2023-02-11T22:56:36.655Z,8.37
2023-02-11T22:59:06.099Z,7.90
2023-02-11T23:01:36.728Z,7.57
2023-02-11T23:04:07.762Z,8.10
2023-02-11T23:06:37.220Z,7.70
2023-02-11T23:09:08.248Z,7.87
2023-02-11T23:11:40.119Z,7.40
2023-02-11T23:14:11.917Z,7.90
2023-02-11T23:16:40.428Z,8.30
2023-02-11T23:19:10.659Z,7.80
2023-02-11T23:21:40.528Z,9.03
2023-02-11T23:24:11.670Z,21.47
2023-02-11T23:26:42.536Z,8.97
2023-02-11T23:29:11.319Z,9.00
2023-02-11T23:31:41.401Z,8.67
2023-02-11T23:34:09.609Z,8.03
2023-02-11T23:36:38.584Z,8.47
2023-02-11T23:39:07.373Z,7.97
2023-02-11T23:41:36.371Z,8.00
2023-02-11T23:44:07.775Z,8.40
2023-02-11T23:46:35.922Z,8.53
2023-02-11T23:49:04.151Z,8.67
2023-02-11T23:51:32.198Z,8.93
2023-02-11T23:54:00.581Z,8.50
2023-02-11T23:56:29.514Z,8.70
2023-02-11T23:58:59.431Z,8.53
